createdAt,value
2022-09-23T00:00:03.819Z,95500.45
2022-09-23T00:01:03.839Z,95501.23
2022-09-23T00:02:03.861Z,95495.68
2022-09-23T00:03:03.776Z,95503.97
2022-09-23T00:04:03.789Z,95506.91
2022-09-23T00:05:03.757Z,95502.52
2022-09-23T00:06:03.773Z,95502.20
2022-09-23T00:07:03.746Z,95504.92
2022-09-23T00:08:03.783Z,95504.77
2022-09-23T00:09:03.729Z,95505.42
2022-09-23T00:10:03.728Z,95502.48
2022-09-23T00:11:03.709Z,95497.40
2022-09-23T00:12:08.180Z,95503.16
2022-09-23T00:13:03.690Z,95501.10
2022-09-23T00:14:03.713Z,95498.65
2022-09-23T00:15:03.684Z,95494.23
2022-09-23T00:16:03.672Z,95494.45
2022-09-23T00:17:03.785Z,95495.85
2022-09-23T00:18:03.665Z,95497.94
2022-09-23T00:19:03.665Z,95495.20
2022-09-23T00:20:03.666Z,95496.47
2022-09-23T00:21:03.635Z,95493.87
2022-09-23T00:22:03.622Z,95494.02
2022-09-23T00:23:03.611Z,95496.02
2022-09-23T00:24:03.604Z,95499.11
2022-09-23T00:25:03.606Z,95497.76
2022-09-23T00:26:03.594Z,95496.80
2022-09-23T00:27:03.587Z,95490.80
2022-09-23T00:28:03.572Z,95495.27
2022-09-23T00:29:03.554Z,95493.84
2022-09-23T00:30:03.569Z,95492.45
2022-09-23T00:31:03.602Z,95492.49
2022-09-23T00:32:03.555Z,95489.50
2022-09-23T00:33:03.526Z,95492.20
2022-09-23T00:34:03.529Z,95493.22
2022-09-23T00:35:03.521Z,95491.70
2022-09-23T00:36:03.517Z,95490.45
2022-09-23T00:37:03.499Z,95489.31
2022-09-23T00:38:03.502Z,95489.94
2022-09-23T00:39:04.473Z,95488.69
2022-09-23T00:40:03.562Z,95487.45
2022-09-23T00:41:03.457Z,95487.73
2022-09-23T00:42:03.448Z,95490.17
2022-09-23T00:43:03.437Z,95485.03
2022-09-23T00:44:03.459Z,95488.92
2022-09-23T00:45:03.420Z,95487.16
2022-09-23T00:46:03.501Z,95488.85
2022-09-23T00:47:03.416Z,95483.23
2022-09-23T00:48:03.414Z,95489.09
2022-09-23T00:49:03.411Z,95484.11
2022-09-23T00:50:03.403Z,95485.42
2022-09-23T00:51:03.371Z,95483.96
2022-09-23T00:52:03.370Z,95483.44
2022-09-23T00:53:03.350Z,95484.85
2022-09-23T00:54:03.351Z,95481.06
2022-09-23T00:55:03.352Z,95485.00
2022-09-23T00:56:03.355Z,95481.73
2022-09-23T00:57:03.324Z,95480.26
2022-09-23T00:58:03.326Z,95480.98
2022-09-23T00:59:03.302Z,95477.27
2022-09-23T01:00:03.313Z,95479.97
2022-09-23T01:01:03.337Z,95480.50
2022-09-23T01:02:03.341Z,95484.42
2022-09-23T01:03:03.264Z,95482.45
2022-09-23T01:04:03.272Z,95482.22
2022-09-23T01:05:03.254Z,95477.95
2022-09-23T01:06:03.244Z,95481.17
2022-09-23T01:07:03.234Z,95481.27
2022-09-23T01:08:03.258Z,95478.21
2022-09-23T01:09:03.223Z,95478.72
2022-09-23T01:10:03.228Z,95480.38
2022-09-23T01:11:03.206Z,95477.95
2022-09-23T01:12:03.197Z,95479.56
2022-09-23T01:13:03.189Z,95477.70
2022-09-23T01:14:03.211Z,95470.34
2022-09-23T01:15:03.183Z,95474.28
2022-09-23T01:16:03.166Z,95468.97
2022-09-23T01:17:03.216Z,95471.97
2022-09-23T01:18:03.151Z,95468.80
2022-09-23T01:19:03.128Z,95469.34
2022-09-23T01:20:03.138Z,95466.97
2022-09-23T01:21:03.109Z,95472.34
2022-09-23T01:22:03.109Z,95466.08
2022-09-23T01:23:03.099Z,95461.83
2022-09-23T01:24:03.103Z,95464.50
2022-09-23T01:25:03.093Z,95462.80
2022-09-23T01:26:03.366Z,95464.88
2022-09-23T01:27:03.060Z,95464.67
2022-09-23T01:28:03.060Z,95464.67
2022-09-23T01:29:03.057Z,95460.36
2022-09-23T01:30:03.050Z,95464.77
2022-09-23T01:31:03.186Z,95456.41
2022-09-23T01:32:03.044Z,95460.73
2022-09-23T01:33:03.029Z,95458.25
2022-09-23T01:34:03.025Z,95460.45
2022-09-23T01:35:03.005Z,95461.42
2022-09-23T01:36:02.995Z,95460.95
2022-09-23T01:37:02.981Z,95464.55
2022-09-23T01:38:02.983Z,95462.45
2022-09-23T01:39:02.976Z,95467.52
2022-09-23T01:40:03.084Z,95457.09
2022-09-23T01:41:02.945Z,95464.55
2022-09-23T01:42:02.944Z,95461.94
2022-09-23T01:43:02.943Z,95461.62
2022-09-23T01:44:02.949Z,95462.02
2022-09-23T01:45:02.914Z,95462.98
2022-09-23T01:46:02.905Z,95461.81
2022-09-23T01:47:02.911Z,95464.69
2022-09-23T01:48:02.944Z,95463.84
2022-09-23T01:49:02.890Z,95457.05
2022-09-23T01:50:02.889Z,95455.56
2022-09-23T01:51:02.857Z,95457.53
2022-09-23T01:52:02.857Z,95459.08
2022-09-23T01:53:02.847Z,95457.27
2022-09-23T01:54:02.837Z,95458.56
2022-09-23T01:55:02.842Z,95464.20
2022-09-23T01:56:02.839Z,95458.05
2022-09-23T01:57:02.810Z,95455.41
2022-09-23T01:58:02.822Z,95454.52
2022-09-23T01:59:02.789Z,95458.31
2022-09-23T02:00:02.810Z,95458.07
2022-09-23T02:01:02.839Z,95456.04
2022-09-23T02:02:02.836Z,95456.28
2022-09-23T02:03:02.760Z,95457.78
2022-09-23T02:04:02.764Z,95461.50
2022-09-23T02:05:02.756Z,95456.27
2022-09-23T02:06:02.753Z,95457.46
2022-09-23T02:07:02.733Z,95454.65
2022-09-23T02:08:02.745Z,95453.98
2022-09-23T02:09:02.711Z,95460.06
2022-09-23T02:10:02.705Z,95456.70
2022-09-23T02:11:02.693Z,95458.55
2022-09-23T02:12:02.693Z,95459.61
2022-09-23T02:13:02.691Z,95457.03
2022-09-23T02:14:02.718Z,95459.73
2022-09-23T02:15:02.660Z,95463.05
2022-09-23T02:16:02.663Z,95461.30
2022-09-23T02:17:02.689Z,95464.50
2022-09-23T02:18:02.638Z,95465.95
2022-09-23T02:19:02.704Z,95465.91
2022-09-23T02:20:02.627Z,95464.83
2022-09-23T02:21:02.618Z,95461.62
2022-09-23T02:22:02.604Z,95465.11
2022-09-23T02:23:02.586Z,95456.65
2022-09-23T02:24:02.586Z,95457.08
2022-09-23T02:25:02.577Z,95457.22
2022-09-23T02:26:02.576Z,95458.74
2022-09-23T02:27:02.571Z,95461.45
2022-09-23T02:28:02.555Z,95456.06
2022-09-23T02:29:02.626Z,95455.30
2022-09-23T02:30:02.551Z,95457.55
2022-09-23T02:31:02.534Z,95456.72
2022-09-23T02:32:02.588Z,95458.48
2022-09-23T02:33:02.522Z,95450.92
2022-09-23T02:34:02.521Z,95451.53
2022-09-23T02:35:02.502Z,95448.88
2022-09-23T02:36:02.479Z,95447.30
2022-09-23T02:37:02.493Z,95449.05
2022-09-23T02:38:02.493Z,95448.37
2022-09-23T02:39:02.473Z,95444.05
2022-09-23T02:40:02.462Z,95444.99
2022-09-23T02:41:02.440Z,95445.27
2022-09-23T02:42:02.444Z,95448.47
2022-09-23T02:43:02.434Z,95444.20
2022-09-23T02:44:02.469Z,95445.39
2022-09-23T02:45:02.426Z,95445.16
2022-09-23T02:46:02.447Z,95444.70
2022-09-23T02:47:02.392Z,95442.62
2022-09-23T02:48:02.383Z,95449.26
2022-09-23T02:49:02.374Z,95442.20
2022-09-23T02:50:02.390Z,95447.57
2022-09-23T02:51:02.361Z,95445.69
2022-09-23T02:52:02.358Z,95439.23
2022-09-23T02:53:02.360Z,95440.84
2022-09-23T02:54:02.368Z,95439.52
2022-09-23T02:55:02.338Z,95442.05
2022-09-23T02:56:02.325Z,95444.13
2022-09-23T02:57:02.318Z,95445.63
2022-09-23T02:58:02.298Z,95446.44
2022-09-23T02:59:02.297Z,95441.00
2022-09-23T03:00:02.291Z,95441.39
2022-09-23T03:01:02.334Z,95440.05
2022-09-23T03:02:02.331Z,95439.97
2022-09-23T03:03:02.257Z,95443.59
2022-09-23T03:04:02.259Z,95438.05
2022-09-23T03:05:02.248Z,95442.02
2022-09-23T03:06:02.242Z,95438.90
2022-09-23T03:07:02.226Z,95438.70
2022-09-23T03:08:02.243Z,95440.39
2022-09-23T03:09:02.223Z,95440.71
2022-09-23T03:10:02.202Z,95442.55
2022-09-23T03:11:02.189Z,95440.86
2022-09-23T03:12:02.193Z,95442.45
2022-09-23T03:13:02.183Z,95440.91
2022-09-23T03:14:02.181Z,95440.20
2022-09-23T03:15:02.174Z,95441.14
2022-09-23T03:16:02.207Z,95440.03
2022-09-23T03:17:02.154Z,95438.31
2022-09-23T03:18:02.134Z,95431.70
2022-09-23T03:19:02.121Z,95438.95
2022-09-23T03:20:02.134Z,95435.16
2022-09-23T03:21:02.123Z,95433.49
2022-09-23T03:22:02.092Z,95431.48
2022-09-23T03:23:02.104Z,95434.73
2022-09-23T03:24:02.140Z,95436.69
2022-09-23T03:25:02.086Z,95436.35
2022-09-23T03:26:02.091Z,95430.27
2022-09-23T03:27:02.067Z,95432.64
2022-09-23T03:28:02.057Z,95429.59
2022-09-23T03:29:02.054Z,95432.17
2022-09-23T03:30:02.037Z,95426.81
2022-09-23T03:31:02.024Z,95425.47
2022-09-23T03:32:02.091Z,95433.91
2022-09-23T03:33:02.023Z,95436.41
2022-09-23T03:34:02.008Z,95435.27
2022-09-23T03:35:02.001Z,95439.08
2022-09-23T03:36:01.974Z,95436.56
2022-09-23T03:37:01.982Z,95436.98
2022-09-23T03:38:01.966Z,95437.57
2022-09-23T03:39:02.060Z,95436.81
2022-09-23T03:40:01.938Z,95433.39
2022-09-23T03:41:01.936Z,95440.49
2022-09-23T03:42:01.940Z,95442.73
2022-09-23T03:43:01.918Z,95440.98
2022-09-23T03:44:01.927Z,95444.36
2022-09-23T03:45:01.911Z,95444.14
2022-09-23T03:46:02.005Z,95441.27
2022-09-23T03:47:01.904Z,95446.34
2022-09-23T03:48:01.894Z,95444.62
2022-09-23T03:49:01.883Z,95444.67
2022-09-23T03:50:01.973Z,95448.12
2022-09-23T03:51:01.849Z,95445.25
2022-09-23T03:52:01.852Z,95445.61
2022-09-23T03:53:01.840Z,95449.28
2022-09-23T03:54:01.887Z,95448.61
2022-09-23T03:55:01.834Z,95448.28
2022-09-23T03:56:01.825Z,95446.86
2022-09-23T03:57:01.815Z,95441.91
2022-09-23T03:58:01.804Z,95442.80
2022-09-23T03:59:01.795Z,95448.98
2022-09-23T04:00:01.773Z,95443.41
2022-09-23T04:01:01.807Z,95445.77
2022-09-23T04:02:01.838Z,95442.66
2022-09-23T04:03:01.753Z,95444.52
2022-09-23T04:04:01.786Z,95441.48
2022-09-23T04:05:01.735Z,95444.95
2022-09-23T04:06:01.734Z,95445.70
2022-09-23T04:07:01.724Z,95446.13
2022-09-23T04:08:01.704Z,95443.44
2022-09-23T04:09:01.706Z,95447.38
2022-09-23T04:10:01.686Z,95444.16
2022-09-23T04:11:01.685Z,95436.00
2022-09-23T04:12:01.666Z,95438.48
2022-09-23T04:13:01.678Z,95438.16
2022-09-23T04:14:01.655Z,95433.92
2022-09-23T04:15:01.645Z,95436.39
2022-09-23T04:16:01.713Z,95436.00
2022-09-23T04:17:01.648Z,95439.77
2022-09-23T04:18:01.616Z,95439.65
2022-09-23T04:19:01.729Z,95435.93
2022-09-23T04:20:01.631Z,95431.92
2022-09-23T04:21:01.606Z,95431.69
2022-09-23T04:22:01.602Z,95433.20
2022-09-23T04:23:01.592Z,95433.95
2022-09-23T04:24:01.568Z,95436.41
2022-09-23T04:25:01.570Z,95432.53
2022-09-23T04:26:01.568Z,95432.48
2022-09-23T04:27:01.565Z,95433.42
2022-09-23T04:28:01.539Z,95435.95
2022-09-23T04:29:01.582Z,95434.89
2022-09-23T04:30:01.519Z,95435.67
2022-09-23T04:31:01.662Z,95428.41
2022-09-23T04:32:01.514Z,95428.70
2022-09-23T04:33:01.501Z,95428.91
2022-09-23T04:34:01.494Z,95421.94
2022-09-23T04:35:01.481Z,95425.77
2022-09-23T04:36:01.471Z,95427.64
2022-09-23T04:37:01.476Z,95427.06
2022-09-23T04:38:01.452Z,95427.06
2022-09-23T04:39:01.465Z,95429.19
2022-09-23T04:40:01.446Z,95421.70
2022-09-23T04:41:01.446Z,95428.92
2022-09-23T04:42:01.420Z,95429.19
2022-09-23T04:43:01.413Z,95425.34
2022-09-23T04:44:01.432Z,95429.50
2022-09-23T04:45:01.411Z,95432.70
2022-09-23T04:46:01.386Z,95427.13
2022-09-23T04:47:01.447Z,95427.81
2022-09-23T04:48:01.367Z,95427.25
2022-09-23T04:49:01.366Z,95426.46
2022-09-23T04:50:01.365Z,95425.49
2022-09-23T04:51:01.360Z,95423.94
2022-09-23T04:52:01.348Z,95429.00
2022-09-23T04:53:01.326Z,95422.46
2022-09-23T04:54:01.330Z,95427.36
2022-09-23T04:55:01.317Z,95429.89
2022-09-23T04:56:01.315Z,95428.71
2022-09-23T04:57:01.308Z,95427.81
2022-09-23T04:58:01.291Z,95424.03
2022-09-23T04:59:01.313Z,95428.05
2022-09-23T05:00:01.257Z,95425.61
2022-09-23T05:01:05.091Z,95422.40
2022-09-23T05:02:01.368Z,95424.88
2022-09-23T05:03:01.262Z,95428.48
2022-09-23T05:04:01.230Z,95428.43
2022-09-23T05:05:01.243Z,95426.28
2022-09-23T05:06:01.226Z,95426.28
2022-09-23T05:07:03.432Z,95425.95
2022-09-23T05:08:01.224Z,95430.58
2022-09-23T05:09:01.190Z,95427.59
2022-09-23T05:10:01.195Z,95426.91
2022-09-23T05:11:01.185Z,95427.92
2022-09-23T05:12:01.165Z,95430.59
2022-09-23T05:13:01.163Z,95431.94
2022-09-23T05:14:01.176Z,95432.62
2022-09-23T05:15:01.160Z,95432.78
2022-09-23T05:16:01.241Z,95433.77
2022-09-23T05:17:01.143Z,95426.17
2022-09-23T05:18:01.126Z,95427.93
2022-09-23T05:19:01.144Z,95428.22
2022-09-23T05:20:01.128Z,95428.92
2022-09-23T05:21:01.093Z,95433.00
2022-09-23T05:22:01.098Z,95432.59
2022-09-23T05:23:01.074Z,95430.44
2022-09-23T05:24:01.096Z,95428.92
2022-09-23T05:25:01.076Z,95427.64
2022-09-23T05:26:01.055Z,95428.92
2022-09-23T05:27:01.058Z,95432.70
2022-09-23T05:28:01.039Z,95432.42
2022-09-23T05:29:01.135Z,95430.16
2022-09-23T05:30:01.022Z,95427.16
2022-09-23T05:31:01.057Z,95433.22
2022-09-23T05:32:01.046Z,95431.12
2022-09-23T05:33:01.000Z,95431.19
2022-09-23T05:34:00.992Z,95431.13
2022-09-23T05:35:00.976Z,95429.57
2022-09-23T05:36:00.965Z,95432.88
2022-09-23T05:37:00.967Z,95431.81
2022-09-23T05:38:00.966Z,95430.29
2022-09-23T05:39:00.939Z,95433.67
2022-09-23T05:40:00.929Z,95429.95
2022-09-23T05:41:00.928Z,95433.74
2022-09-23T05:42:00.911Z,95436.52
2022-09-23T05:43:00.925Z,95437.81
2022-09-23T05:44:00.905Z,95440.81
2022-09-23T05:45:00.891Z,95441.61
2022-09-23T05:46:02.258Z,95436.88
2022-09-23T05:47:00.916Z,95435.86
2022-09-23T05:48:00.874Z,95441.94
2022-09-23T05:49:03.018Z,95442.52
2022-09-23T05:50:00.929Z,95447.92
2022-09-23T05:51:00.855Z,95447.10
2022-09-23T05:52:00.845Z,95445.14
2022-09-23T05:53:00.843Z,95445.73
2022-09-23T05:54:00.826Z,95446.06
2022-09-23T05:55:00.818Z,95444.76
2022-09-23T05:56:00.830Z,95443.69
2022-09-23T05:57:04.244Z,95446.70
2022-09-23T05:58:00.773Z,95445.48
2022-09-23T05:59:00.863Z,95446.22
2022-09-23T06:00:00.763Z,95443.89
2022-09-23T06:01:00.781Z,95444.19
2022-09-23T06:02:00.789Z,95444.05
2022-09-23T06:03:00.786Z,95447.49
2022-09-23T06:04:00.833Z,95448.06
2022-09-23T06:05:00.739Z,95450.09
2022-09-23T06:06:00.726Z,95447.29
2022-09-23T06:07:03.496Z,95450.02
2022-09-23T06:08:00.709Z,95449.94
2022-09-23T06:09:00.687Z,95451.44
2022-09-23T06:10:00.691Z,95449.62
2022-09-23T06:11:00.675Z,95453.53
2022-09-23T06:12:00.658Z,95457.83
2022-09-23T06:13:00.670Z,95458.58
2022-09-23T06:14:00.661Z,95455.64
2022-09-23T06:15:00.639Z,95458.08
2022-09-23T06:16:00.674Z,95452.00
2022-09-23T06:17:00.643Z,95455.19
2022-09-23T06:18:00.621Z,95454.11
2022-09-23T06:19:05.048Z,95453.55
2022-09-23T06:20:00.613Z,95458.50
2022-09-23T06:21:00.602Z,95458.08
2022-09-23T06:22:00.593Z,95457.21
2022-09-23T06:23:00.585Z,95452.11
2022-09-23T06:24:00.582Z,95456.58
2022-09-23T06:25:00.575Z,95451.33
2022-09-23T06:26:00.574Z,95457.05
2022-09-23T06:27:00.554Z,95457.16
2022-09-23T06:28:00.535Z,95450.08
2022-09-23T06:29:00.535Z,95453.82
2022-09-23T06:30:00.522Z,95450.84
2022-09-23T06:31:00.561Z,95452.09
2022-09-23T06:32:00.590Z,95452.81
2022-09-23T06:33:00.503Z,95452.88
2022-09-23T06:34:12.417Z,95456.12
2022-09-23T06:35:00.472Z,95456.97
2022-09-23T06:36:00.461Z,95461.80
2022-09-23T06:37:07.975Z,95461.02
2022-09-23T06:38:00.460Z,95458.79
2022-09-23T06:39:00.448Z,95463.47
2022-09-23T06:40:00.447Z,95458.07
2022-09-23T06:41:00.437Z,95457.80
2022-09-23T06:42:00.421Z,95460.08
2022-09-23T06:43:00.404Z,95465.70
2022-09-23T06:44:00.439Z,95465.08
2022-09-23T06:45:00.386Z,95467.47
2022-09-23T06:46:00.391Z,95467.10
2022-09-23T06:47:00.409Z,95466.27
2022-09-23T06:48:00.378Z,95467.62
2022-09-23T06:49:00.346Z,95459.23
2022-09-23T06:50:00.356Z,95466.50
2022-09-23T06:51:00.346Z,95467.64
2022-09-23T06:52:00.327Z,95468.38
2022-09-23T06:53:00.317Z,95471.84
2022-09-23T06:54:00.398Z,95470.52
2022-09-23T06:55:00.313Z,95472.21
2022-09-23T06:56:00.306Z,95475.55
2022-09-23T06:57:00.293Z,95471.17
2022-09-23T06:58:00.292Z,95470.56
2022-09-23T06:59:00.272Z,95470.43
2022-09-23T07:00:00.275Z,95473.53
2022-09-23T07:01:00.247Z,95474.45
2022-09-23T07:02:00.519Z,95477.15
2022-09-23T07:03:00.325Z,95478.05
2022-09-23T07:04:00.232Z,95487.67
2022-09-23T07:05:00.225Z,95481.30
2022-09-23T07:06:00.211Z,95484.44
2022-09-23T07:07:00.214Z,95485.03
2022-09-23T07:08:00.211Z,95487.10
2022-09-23T07:09:00.181Z,95487.20
2022-09-23T07:10:00.187Z,95485.25
2022-09-23T07:11:00.162Z,95478.31
2022-09-23T07:12:00.160Z,95479.17
2022-09-23T07:13:00.156Z,95479.55
2022-09-23T07:14:00.167Z,95474.62
2022-09-23T07:15:00.148Z,95478.05
2022-09-23T07:16:00.198Z,95480.55
2022-09-23T07:17:00.116Z,95481.42
2022-09-23T07:18:00.116Z,95478.55
2022-09-23T07:19:00.143Z,95485.11
2022-09-23T07:20:00.096Z,95478.95
2022-09-23T07:21:00.076Z,95479.86
2022-09-23T07:22:00.089Z,95478.83
2022-09-23T07:23:00.069Z,95480.19
2022-09-23T07:24:00.055Z,95476.89
2022-09-23T07:25:00.046Z,95481.39
2022-09-23T07:26:00.067Z,95477.97
2022-09-23T07:27:00.040Z,95477.69
2022-09-23T07:28:00.040Z,95477.41
2022-09-23T07:29:00.008Z,95473.52
2022-09-23T07:30:00.026Z,95476.80
2022-09-23T07:31:01.034Z,95473.76
2022-09-23T07:32:10.290Z,95479.25
2022-09-23T07:33:00.044Z,95477.50
2022-09-23T07:33:59.969Z,95468.05
2022-09-23T07:34:59.960Z,95474.12
2022-09-23T07:35:59.959Z,95466.33
2022-09-23T07:36:59.954Z,95473.47
2022-09-23T07:37:59.960Z,95476.05
2022-09-23T07:38:59.932Z,95474.58
2022-09-23T07:39:59.921Z,95471.05
2022-09-23T07:40:59.925Z,95470.51
2022-09-23T07:41:59.911Z,95478.02
2022-09-23T07:42:59.905Z,95473.33
2022-09-23T07:43:59.922Z,95476.15
2022-09-23T07:44:59.886Z,95476.28
2022-09-23T07:45:59.932Z,95476.20
2022-09-23T07:46:59.877Z,95474.95
2022-09-23T07:47:59.862Z,95475.92
2022-09-23T07:48:59.857Z,95479.70
2022-09-23T07:49:59.865Z,95478.95
2022-09-23T07:50:59.824Z,95477.70
2022-09-23T07:51:59.838Z,95477.64
2022-09-23T07:52:59.819Z,95476.11
2022-09-23T07:53:59.821Z,95480.03
2022-09-23T07:54:59.810Z,95476.30
2022-09-23T07:55:59.828Z,95480.20
2022-09-23T07:56:59.780Z,95478.12
2022-09-23T07:57:59.777Z,95471.81
2022-09-23T07:59:00.068Z,95471.81
2022-09-23T07:59:59.779Z,95468.75
2022-09-23T08:00:59.760Z,95472.73
2022-09-23T08:01:59.865Z,95464.48
2022-09-23T08:02:59.773Z,95472.26
2022-09-23T08:03:59.732Z,95469.88
2022-09-23T08:04:59.741Z,95469.08
2022-09-23T08:05:59.710Z,95472.26
2022-09-23T08:06:59.713Z,95474.69
2022-09-23T08:07:59.724Z,95468.30
2022-09-23T08:08:59.694Z,95467.97
2022-09-23T08:09:59.702Z,95465.59
2022-09-23T08:10:59.675Z,95467.69
2022-09-23T08:11:59.675Z,95462.30
2022-09-23T08:12:59.663Z,95466.59
2022-09-23T08:13:59.756Z,95466.70
2022-09-23T08:14:59.631Z,95462.46
2022-09-23T08:15:59.739Z,95458.31
2022-09-23T08:16:59.614Z,95463.08
2022-09-23T08:17:59.627Z,95462.17
2022-09-23T08:18:59.734Z,95465.45
2022-09-23T08:19:59.605Z,95460.66
2022-09-23T08:20:59.597Z,95461.29
2022-09-23T08:21:59.574Z,95462.25
2022-09-23T08:22:59.565Z,95453.55
2022-09-23T08:23:59.633Z,95451.81
2022-09-23T08:24:59.563Z,95455.33
2022-09-23T08:25:59.778Z,95457.78
2022-09-23T08:26:59.552Z,95455.27
2022-09-23T08:27:59.537Z,95452.92
2022-09-23T08:28:59.518Z,95453.41
2022-09-23T08:29:59.517Z,95450.51
2022-09-23T08:30:59.575Z,95450.68
2022-09-23T08:31:59.521Z,95453.45
2022-09-23T08:32:59.501Z,95458.95
2022-09-23T08:33:59.524Z,95459.02
2022-09-23T08:34:59.469Z,95454.50
2022-09-23T08:35:59.474Z,95458.81
2022-09-23T08:36:59.449Z,95458.04
2022-09-23T08:37:59.464Z,95453.77
2022-09-23T08:38:59.444Z,95456.20
2022-09-23T08:39:59.432Z,95453.98
2022-09-23T08:40:59.433Z,95449.01
2022-09-23T08:41:59.441Z,95456.52
2022-09-23T08:42:59.402Z,95448.69
2022-09-23T08:43:59.491Z,95448.69
2022-09-23T08:44:59.382Z,95444.28
2022-09-23T08:45:59.414Z,95451.55
2022-09-23T08:46:59.377Z,95449.84
2022-09-23T08:47:59.377Z,95454.06
2022-09-23T08:48:59.353Z,95447.24
2022-09-23T08:49:59.363Z,95444.73
2022-09-23T08:50:59.358Z,95450.86
2022-09-23T08:51:59.326Z,95450.05
2022-09-23T08:52:59.328Z,95448.78
2022-09-23T08:53:59.360Z,95451.09
2022-09-23T08:54:59.297Z,95450.45
2022-09-23T08:55:59.400Z,95452.08
2022-09-23T08:56:59.290Z,95449.58
2022-09-23T08:58:23.920Z,95446.81
2022-09-23T08:58:59.257Z,95450.34
2022-09-23T08:59:59.275Z,95443.65
2022-09-23T09:00:59.426Z,95438.61
2022-09-23T09:01:59.258Z,95438.44
2022-09-23T09:02:59.233Z,95437.52
2022-09-23T09:03:59.232Z,95441.56
2022-09-23T09:04:59.223Z,95436.92
2022-09-23T09:05:59.200Z,95437.66
2022-09-23T09:07:12.345Z,95440.11
2022-09-23T09:07:59.191Z,95440.88
2022-09-23T09:08:59.175Z,95437.08
2022-09-23T09:09:59.184Z,95430.94
2022-09-23T09:10:59.151Z,95436.28
2022-09-23T09:11:59.152Z,95431.04
2022-09-23T09:12:59.133Z,95434.29
2022-09-23T09:13:59.144Z,95436.28
2022-09-23T09:14:59.121Z,95432.23
2022-09-23T09:15:59.142Z,95435.13
2022-09-23T09:17:00.589Z,95435.64
2022-09-23T09:17:59.108Z,95429.89
2022-09-23T09:18:59.158Z,95428.36
2022-09-23T09:19:59.085Z,95432.69
2022-09-23T09:20:59.092Z,95427.97
2022-09-23T09:21:59.070Z,95427.37
2022-09-23T09:22:59.047Z,95428.72
2022-09-23T09:23:59.112Z,95431.86
2022-09-23T09:24:59.040Z,95431.42
2022-09-23T09:25:59.035Z,95426.71
2022-09-23T09:26:59.016Z,95427.80
2022-09-23T09:27:59.031Z,95429.08
2022-09-23T09:29:06.518Z,95426.62
2022-09-23T09:29:59.001Z,95431.41
2022-09-23T09:30:59.006Z,95429.48
2022-09-23T09:31:58.979Z,95429.38
2022-09-23T09:32:59.028Z,95425.50
2022-09-23T09:33:58.970Z,95422.42
2022-09-23T09:34:58.955Z,95419.11
2022-09-23T09:35:58.952Z,95418.49
2022-09-23T09:37:02.240Z,95416.66
2022-09-23T09:37:58.954Z,95415.88
2022-09-23T09:38:58.915Z,95411.59
2022-09-23T09:39:58.916Z,95416.22
2022-09-23T09:40:58.905Z,95411.09
2022-09-23T09:41:58.883Z,95415.53
2022-09-23T09:42:58.874Z,95413.03
2022-09-23T09:43:58.883Z,95411.23
2022-09-23T09:44:58.853Z,95412.19
2022-09-23T09:45:58.858Z,95412.69
2022-09-23T09:46:58.967Z,95407.50
2022-09-23T09:47:58.849Z,95402.98
2022-09-23T09:48:58.839Z,95402.47
2022-09-23T09:49:58.829Z,95398.97
2022-09-23T09:50:58.809Z,95399.07
2022-09-23T09:51:58.795Z,95403.27
2022-09-23T09:52:58.723Z,95400.55
2022-09-23T09:53:58.736Z,95401.91
2022-09-23T09:54:58.713Z,95398.75
2022-09-23T09:56:03.713Z,95390.78
2022-09-23T09:56:58.717Z,95395.90
2022-09-23T09:57:58.700Z,95394.09
2022-09-23T09:58:58.685Z,95394.98
2022-09-23T09:59:58.677Z,95393.03
2022-09-23T10:00:58.653Z,95383.23
2022-09-23T10:01:58.743Z,95393.11
2022-09-23T10:02:58.633Z,95388.00
2022-09-23T10:03:59.505Z,95379.59
2022-09-23T10:04:58.622Z,95386.23
2022-09-23T10:05:58.625Z,95386.44
2022-09-23T10:06:58.607Z,95383.16
2022-09-23T10:07:58.606Z,95383.02
2022-09-23T10:08:58.573Z,95378.45
2022-09-23T10:10:06.067Z,95380.54
2022-09-23T10:10:58.562Z,95377.03
2022-09-23T10:11:58.555Z,95375.08
2022-09-23T10:12:58.555Z,95374.37
2022-09-23T10:13:58.558Z,95380.06
2022-09-23T10:14:58.523Z,95373.45
2022-09-23T10:15:58.528Z,95376.00
2022-09-23T10:16:58.553Z,95374.45
2022-09-23T10:17:58.495Z,95378.34
2022-09-23T10:18:58.483Z,95378.27
2022-09-23T10:19:58.484Z,95378.34
2022-09-23T10:20:58.479Z,95374.33
2022-09-23T10:21:58.478Z,95374.03
2022-09-23T10:22:58.446Z,95373.22
2022-09-23T10:23:58.445Z,95378.30
2022-09-23T10:24:58.440Z,95380.55
2022-09-23T10:25:58.437Z,95376.89
2022-09-23T10:26:58.422Z,95374.20
2022-09-23T10:27:58.408Z,95369.39
2022-09-23T10:28:58.404Z,95370.67
2022-09-23T10:29:58.389Z,95374.88
2022-09-23T10:30:58.415Z,95371.12
2022-09-23T10:31:58.380Z,95367.40
2022-09-23T10:32:58.374Z,95367.44
2022-09-23T10:33:58.351Z,95364.33
2022-09-23T10:34:58.342Z,95358.97
2022-09-23T10:35:58.332Z,95364.12
2022-09-23T10:36:58.337Z,95360.33
2022-09-23T10:37:58.333Z,95363.33
2022-09-23T10:38:58.319Z,95359.77
2022-09-23T10:39:58.319Z,95357.20
2022-09-23T10:40:58.441Z,95357.39
2022-09-23T10:41:58.304Z,95356.41
2022-09-23T10:42:58.270Z,95355.93
2022-09-23T10:43:58.280Z,95351.29
2022-09-23T10:44:58.265Z,95354.38
2022-09-23T10:45:58.300Z,95356.95
2022-09-23T10:46:58.253Z,95356.99
2022-09-23T10:47:58.233Z,95354.88
2022-09-23T10:48:58.230Z,95360.34
2022-09-23T10:49:58.239Z,95353.36
2022-09-23T10:50:59.576Z,95358.06
2022-09-23T10:51:58.211Z,95353.55
2022-09-23T10:52:58.204Z,95354.55
2022-09-23T10:53:58.198Z,95357.41
2022-09-23T10:54:58.183Z,95350.56
2022-09-23T10:55:58.183Z,95362.02
2022-09-23T10:56:59.100Z,95353.94
2022-09-23T10:57:58.162Z,95358.89
2022-09-23T10:58:58.134Z,95359.89
2022-09-23T10:59:58.133Z,95363.97
2022-09-23T11:00:58.168Z,95358.88
2022-09-23T11:01:58.280Z,95359.97
2022-09-23T11:02:58.117Z,95365.62
2022-09-23T11:03:58.146Z,95369.56
2022-09-23T11:04:58.163Z,95361.27
2022-09-23T11:05:58.082Z,95364.05
2022-09-23T11:06:58.069Z,95353.64
2022-09-23T11:07:58.123Z,95360.05
2022-09-23T11:08:58.050Z,95355.50
2022-09-23T11:09:58.042Z,95357.09
2022-09-23T11:10:58.032Z,95359.73
2022-09-23T11:11:58.022Z,95355.66
2022-09-23T11:12:58.037Z,95350.48
2022-09-23T11:13:58.033Z,95362.38
2022-09-23T11:14:58.017Z,95360.67
2022-09-23T11:15:58.001Z,95351.76
2022-09-23T11:16:58.150Z,95360.20
2022-09-23T11:17:57.978Z,95354.88
2022-09-23T11:18:57.968Z,95359.20
2022-09-23T11:19:57.982Z,95351.39
2022-09-23T11:20:57.963Z,95352.10
2022-09-23T11:21:57.940Z,95347.69
2022-09-23T11:22:57.945Z,95350.47
2022-09-23T11:23:57.922Z,95343.91
2022-09-23T11:24:57.979Z,95346.70
2022-09-23T11:25:57.924Z,95342.20
2022-09-23T11:26:57.893Z,95343.81
2022-09-23T11:27:57.885Z,95345.05
2022-09-23T11:28:57.885Z,95346.67
2022-09-23T11:29:57.880Z,95337.91
2022-09-23T11:30:57.967Z,95342.73
2022-09-23T11:31:59.761Z,95343.12
2022-09-23T11:32:57.893Z,95338.81
2022-09-23T11:33:57.843Z,95335.35
2022-09-23T11:34:57.882Z,95336.69
2022-09-23T11:35:57.823Z,95336.11
2022-09-23T11:36:57.812Z,95331.70
2022-09-23T11:37:57.825Z,95329.78
2022-09-23T11:38:57.793Z,95329.68
2022-09-23T11:39:57.804Z,95329.06
2022-09-23T11:40:57.878Z,95322.83
2022-09-23T11:41:57.755Z,95328.50
2022-09-23T11:42:57.754Z,95327.58
2022-09-23T11:43:57.753Z,95326.31